sensor_id;sensor_type;location;lat;lon;timestamp;temperature;humidity
16384;DHT22;8301;51.440;6.610;2023-03-05T00:00:00;3.90;99.90
16384;DHT22;8301;51.440;6.610;2023-03-05T00:02:27;3.90;99.90
16384;DHT22;8301;51.440;6.610;2023-03-05T00:04:53;3.90;99.90
16384;DHT22;8301;51.440;6.610;2023-03-05T00:07:20;3.90;99.90
16384;DHT22;8301;51.440;6.610;2023-03-05T00:09:47;3.90;99.90
16384;DHT22;8301;51.440;6.610;2023-03-05T00:12:14;3.90;99.90
16384;DHT22;8301;51.440;6.610;2023-03-05T00:14:42;3.90;99.90
16384;DHT22;8301;51.440;6.610;2023-03-05T00:17:08;3.90;99.90
16384;DHT22;8301;51.440;6.610;2023-03-05T00:19:35;3.90;99.90
16384;DHT22;8301;51.440;6.610;2023-03-05T00:22:02;3.80;99.90
16384;DHT22;8301;51.440;6.610;2023-03-05T00:24:29;3.80;99.90
16384;DHT22;8301;51.440;6.610;2023-03-05T00:26:56;3.80;99.90
16384;DHT22;8301;51.440;6.610;2023-03-05T00:29:22;3.80;99.90
16384;DHT22;8301;51.440;6.610;2023-03-05T00:31:49;3.80;99.90
16384;DHT22;8301;51.440;6.610;2023-03-05T00:34:18;3.80;99.90
16384;DHT22;8301;51.440;6.610;2023-03-05T00:36:46;3.80;99.90
16384;DHT22;8301;51.440;6.610;2023-03-05T00:39:13;3.80;99.90
16384;DHT22;8301;51.440;6.610;2023-03-05T00:41:42;3.80;99.90
16384;DHT22;8301;51.440;6.610;2023-03-05T00:44:09;3.70;99.90
16384;DHT22;8301;51.440;6.610;2023-03-05T00:46:36;3.70;99.90
16384;DHT22;8301;51.440;6.610;2023-03-05T00:49:03;3.70;99.90
16384;DHT22;8301;51.440;6.610;2023-03-05T00:51:30;3.70;99.90
16384;DHT22;8301;51.440;6.610;2023-03-05T00:53:57;3.70;99.90
16384;DHT22;8301;51.440;6.610;2023-03-05T00:56:23;3.70;99.90
16384;DHT22;8301;51.440;6.610;2023-03-05T00:58:51;3.70;99.90
16384;DHT22;8301;51.440;6.610;2023-03-05T01:01:18;3.60;99.90
16384;DHT22;8301;51.440;6.610;2023-03-05T01:03:45;3.60;99.90
16384;DHT22;8301;51.440;6.610;2023-03-05T01:06:12;3.70;99.90
16384;DHT22;8301;51.440;6.610;2023-03-05T01:08:41;3.70;99.90
16384;DHT22;8301;51.440;6.610;2023-03-05T01:11:09;3.70;99.90
16384;DHT22;8301;51.440;6.610;2023-03-05T01:13:35;3.60;99.90
16384;DHT22;8301;51.440;6.610;2023-03-05T01:16:03;3.70;99.90
16384;DHT22;8301;51.440;6.610;2023-03-05T01:18:30;3.60;99.90
16384;DHT22;8301;51.440;6.610;2023-03-05T01:20:58;3.70;99.90
16384;DHT22;8301;51.440;6.610;2023-03-05T01:23:25;3.70;99.90
16384;DHT22;8301;51.440;6.610;2023-03-05T01:25:52;3.70;99.90
16384;DHT22;8301;51.440;6.610;2023-03-05T01:28:20;3.60;99.90
16384;DHT22;8301;51.440;6.610;2023-03-05T01:30:46;3.60;99.90
16384;DHT22;8301;51.440;6.610;2023-03-05T01:33:14;3.60;99.90
16384;DHT22;8301;51.440;6.610;2023-03-05T01:35:41;3.60;99.90
16384;DHT22;8301;51.440;6.610;2023-03-05T01:38:08;3.60;99.90
16384;DHT22;8301;51.440;6.610;2023-03-05T01:40:37;3.60;99.90
16384;DHT22;8301;51.440;6.610;2023-03-05T01:45:39;3.60;99.90
16384;DHT22;8301;51.440;6.610;2023-03-05T01:48:06;3.50;99.90
16384;DHT22;8301;51.440;6.610;2023-03-05T01:50:33;3.60;99.90
16384;DHT22;8301;51.440;6.610;2023-03-05T01:53:00;3.50;99.90
16384;DHT22;8301;51.440;6.610;2023-03-05T01:55:28;3.50;99.90
16384;DHT22;8301;51.440;6.610;2023-03-05T01:58:05;3.60;99.90
16384;DHT22;8301;51.440;6.610;2023-03-05T02:00:47;3.60;99.90
16384;DHT22;8301;51.440;6.610;2023-03-05T02:03:15;3.60;99.90
16384;DHT22;8301;51.440;6.610;2023-03-05T02:05:42;3.60;99.90
16384;DHT22;8301;51.440;6.610;2023-03-05T02:08:12;3.60;99.90
16384;DHT22;8301;51.440;6.610;2023-03-05T02:10:39;3.60;99.90
16384;DHT22;8301;51.440;6.610;2023-03-05T02:13:10;3.50;99.90
16384;DHT22;8301;51.440;6.610;2023-03-05T02:15:37;3.60;99.90
16384;DHT22;8301;51.440;6.610;2023-03-05T02:18:05;3.50;99.90
16384;DHT22;8301;51.440;6.610;2023-03-05T02:20:43;3.50;99.90
16384;DHT22;8301;51.440;6.610;2023-03-05T02:23:19;3.50;99.90
16384;DHT22;8301;51.440;6.610;2023-03-05T02:25:47;3.50;99.90
16384;DHT22;8301;51.440;6.610;2023-03-05T02:28:15;3.50;99.90
16384;DHT22;8301;51.440;6.610;2023-03-05T02:30:43;3.50;99.90
16384;DHT22;8301;51.440;6.610;2023-03-05T02:33:10;3.50;99.90
16384;DHT22;8301;51.440;6.610;2023-03-05T02:35:38;3.40;99.90
16384;DHT22;8301;51.440;6.610;2023-03-05T02:38:05;3.40;99.90
16384;DHT22;8301;51.440;6.610;2023-03-05T02:40:32;3.40;99.90
16384;DHT22;8301;51.440;6.610;2023-03-05T02:42:59;3.40;99.90
16384;DHT22;8301;51.440;6.610;2023-03-05T02:45:25;3.40;99.90
16384;DHT22;8301;51.440;6.610;2023-03-05T02:47:52;3.40;99.90
16384;DHT22;8301;51.440;6.610;2023-03-05T02:50:26;3.40;99.90
16384;DHT22;8301;51.440;6.610;2023-03-05T02:52:53;3.30;99.90
16384;DHT22;8301;51.440;6.610;2023-03-05T02:55:20;3.30;99.90
16384;DHT22;8301;51.440;6.610;2023-03-05T02:57:47;3.30;99.90
16384;DHT22;8301;51.440;6.610;2023-03-05T03:00:14;3.30;99.90
16384;DHT22;8301;51.440;6.610;2023-03-05T03:02:41;3.30;99.90
16384;DHT22;8301;51.440;6.610;2023-03-05T03:05:08;3.30;99.90
16384;DHT22;8301;51.440;6.610;2023-03-05T03:07:34;3.30;99.90
16384;DHT22;8301;51.440;6.610;2023-03-05T03:10:02;3.30;99.90
16384;DHT22;8301;51.440;6.610;2023-03-05T03:12:29;3.20;99.90
16384;DHT22;8301;51.440;6.610;2023-03-05T03:14:56;3.20;99.90
16384;DHT22;8301;51.440;6.610;2023-03-05T03:17:23;3.20;99.90
16384;DHT22;8301;51.440;6.610;2023-03-05T03:19:49;3.20;99.90
16384;DHT22;8301;51.440;6.610;2023-03-05T03:22:16;3.20;99.90
16384;DHT22;8301;51.440;6.610;2023-03-05T03:24:45;3.20;99.90
16384;DHT22;8301;51.440;6.610;2023-03-05T03:27:13;3.20;99.90
16384;DHT22;8301;51.440;6.610;2023-03-05T03:29:40;3.20;99.90
16384;DHT22;8301;51.440;6.610;2023-03-05T03:32:07;3.20;99.90
16384;DHT22;8301;51.440;6.610;2023-03-05T03:34:34;3.20;99.90
16384;DHT22;8301;51.440;6.610;2023-03-05T03:37:01;3.20;99.90
16384;DHT22;8301;51.440;6.610;2023-03-05T03:39:40;3.20;99.90
16384;DHT22;8301;51.440;6.610;2023-03-05T03:42:09;3.20;99.90
16384;DHT22;8301;51.440;6.610;2023-03-05T03:44:35;3.20;99.90
16384;DHT22;8301;51.440;6.610;2023-03-05T03:47:02;3.20;99.90
16384;DHT22;8301;51.440;6.610;2023-03-05T03:49:29;3.20;99.90
16384;DHT22;8301;51.440;6.610;2023-03-05T03:51:56;3.20;99.90
16384;DHT22;8301;51.440;6.610;2023-03-05T03:54:25;3.10;99.90
16384;DHT22;8301;51.440;6.610;2023-03-05T03:56:52;3.20;99.90
16384;DHT22;8301;51.440;6.610;2023-03-05T03:59:19;3.20;99.90
16384;DHT22;8301;51.440;6.610;2023-03-05T04:01:46;3.10;99.90
16384;DHT22;8301;51.440;6.610;2023-03-05T04:04:13;3.20;99.90
16384;DHT22;8301;51.440;6.610;2023-03-05T04:06:40;3.20;99.90
16384;DHT22;8301;51.440;6.610;2023-03-05T04:09:13;3.20;99.90
16384;DHT22;8301;51.440;6.610;2023-03-05T04:11:39;3.10;99.90
16384;DHT22;8301;51.440;6.610;2023-03-05T04:14:06;3.10;99.90
16384;DHT22;8301;51.440;6.610;2023-03-05T04:16:33;3.10;99.90
16384;DHT22;8301;51.440;6.610;2023-03-05T04:19:00;3.10;99.90
16384;DHT22;8301;51.440;6.610;2023-03-05T04:21:27;3.10;99.90
16384;DHT22;8301;51.440;6.610;2023-03-05T04:23:54;3.00;99.90
16384;DHT22;8301;51.440;6.610;2023-03-05T04:26:21;3.10;99.90
16384;DHT22;8301;51.440;6.610;2023-03-05T04:28:48;3.10;99.90
16384;DHT22;8301;51.440;6.610;2023-03-05T04:31:15;3.00;99.90
16384;DHT22;8301;51.440;6.610;2023-03-05T04:33:42;3.00;99.90
16384;DHT22;8301;51.440;6.610;2023-03-05T04:36:09;3.00;99.90
16384;DHT22;8301;51.440;6.610;2023-03-05T04:38:35;3.00;99.90
16384;DHT22;8301;51.440;6.610;2023-03-05T04:41:02;3.10;99.90
16384;DHT22;8301;51.440;6.610;2023-03-05T04:43:29;3.10;99.90
16384;DHT22;8301;51.440;6.610;2023-03-05T04:45:56;3.00;99.90
16384;DHT22;8301;51.440;6.610;2023-03-05T04:48:23;3.00;99.90
16384;DHT22;8301;51.440;6.610;2023-03-05T04:50:49;2.90;99.90
16384;DHT22;8301;51.440;6.610;2023-03-05T04:53:18;2.90;99.90
16384;DHT22;8301;51.440;6.610;2023-03-05T04:55:50;2.90;99.90
16384;DHT22;8301;51.440;6.610;2023-03-05T04:58:14;3.00;99.90
16384;DHT22;8301;51.440;6.610;2023-03-05T05:00:41;2.90;99.90
16384;DHT22;8301;51.440;6.610;2023-03-05T05:03:08;2.90;99.90
16384;DHT22;8301;51.440;6.610;2023-03-05T05:05:35;2.90;99.90
16384;DHT22;8301;51.440;6.610;2023-03-05T05:08:05;2.80;99.90
16384;DHT22;8301;51.440;6.610;2023-03-05T05:10:32;2.80;99.90
16384;DHT22;8301;51.440;6.610;2023-03-05T05:12:59;2.80;99.90
16384;DHT22;8301;51.440;6.610;2023-03-05T05:15:26;2.70;99.90
16384;DHT22;8301;51.440;6.610;2023-03-05T05:17:52;2.70;99.90
16384;DHT22;8301;51.440;6.610;2023-03-05T05:20:20;2.70;99.90
16384;DHT22;8301;51.440;6.610;2023-03-05T05:22:47;2.70;99.90
16384;DHT22;8301;51.440;6.610;2023-03-05T05:25:14;2.70;99.90
16384;DHT22;8301;51.440;6.610;2023-03-05T05:27:41;2.70;99.90
16384;DHT22;8301;51.440;6.610;2023-03-05T05:30:08;2.70;99.90
16384;DHT22;8301;51.440;6.610;2023-03-05T05:32:35;2.60;99.90
16384;DHT22;8301;51.440;6.610;2023-03-05T05:35:03;2.60;99.90
16384;DHT22;8301;51.440;6.610;2023-03-05T05:37:29;2.60;99.90
16384;DHT22;8301;51.440;6.610;2023-03-05T05:39:56;2.50;99.90
16384;DHT22;8301;51.440;6.610;2023-03-05T05:42:23;2.50;99.90
16384;DHT22;8301;51.440;6.610;2023-03-05T05:44:50;2.50;99.90
16384;DHT22;8301;51.440;6.610;2023-03-05T05:47:17;2.50;99.90
16384;DHT22;8301;51.440;6.610;2023-03-05T05:49:58;2.50;99.90
16384;DHT22;8301;51.440;6.610;2023-03-05T05:52:26;2.60;99.90
16384;DHT22;8301;51.440;6.610;2023-03-05T05:54:53;2.60;99.90
16384;DHT22;8301;51.440;6.610;2023-03-05T05:57:21;2.60;99.90
16384;DHT22;8301;51.440;6.610;2023-03-05T05:59:49;2.60;99.90
16384;DHT22;8301;51.440;6.610;2023-03-05T06:02:16;2.60;99.90
16384;DHT22;8301;51.440;6.610;2023-03-05T06:04:43;2.60;99.90
16384;DHT22;8301;51.440;6.610;2023-03-05T06:07:10;2.60;99.90
16384;DHT22;8301;51.440;6.610;2023-03-05T06:09:36;2.60;99.90
16384;DHT22;8301;51.440;6.610;2023-03-05T06:12:03;2.70;99.90
16384;DHT22;8301;51.440;6.610;2023-03-05T06:14:30;2.60;99.90
16384;DHT22;8301;51.440;6.610;2023-03-05T06:16:58;2.70;99.90
16384;DHT22;8301;51.440;6.610;2023-03-05T06:19:25;2.70;99.90
16384;DHT22;8301;51.440;6.610;2023-03-05T06:21:52;2.80;99.90
16384;DHT22;8301;51.440;6.610;2023-03-05T06:24:19;2.70;99.90
16384;DHT22;8301;51.440;6.610;2023-03-05T06:26:47;2.80;99.90
16384;DHT22;8301;51.440;6.610;2023-03-05T06:29:14;2.80;99.90
16384;DHT22;8301;51.440;6.610;2023-03-05T06:31:41;2.80;99.90
16384;DHT22;8301;51.440;6.610;2023-03-05T06:34:08;2.80;99.90
16384;DHT22;8301;51.440;6.610;2023-03-05T06:36:35;2.80;99.90
16384;DHT22;8301;51.440;6.610;2023-03-05T06:39:02;2.80;99.90
16384;DHT22;8301;51.440;6.610;2023-03-05T06:41:30;2.80;99.90
16384;DHT22;8301;51.440;6.610;2023-03-05T06:43:58;2.90;99.90
16384;DHT22;8301;51.440;6.610;2023-03-05T06:46:26;2.90;99.90
16384;DHT22;8301;51.440;6.610;2023-03-05T06:48:56;2.90;99.90
16384;DHT22;8301;51.440;6.610;2023-03-05T06:51:24;3.00;99.90
16384;DHT22;8301;51.440;6.610;2023-03-05T06:53:51;3.00;99.90
16384;DHT22;8301;51.440;6.610;2023-03-05T06:56:19;3.00;99.90
16384;DHT22;8301;51.440;6.610;2023-03-05T06:58:47;3.00;99.90
16384;DHT22;8301;51.440;6.610;2023-03-05T07:01:15;3.00;99.90
16384;DHT22;8301;51.440;6.610;2023-03-05T07:03:42;3.00;99.90
16384;DHT22;8301;51.440;6.610;2023-03-05T07:06:10;3.00;99.90
16384;DHT22;8301;51.440;6.610;2023-03-05T07:08:37;3.10;99.90
16384;DHT22;8301;51.440;6.610;2023-03-05T07:11:18;3.00;99.90
16384;DHT22;8301;51.440;6.610;2023-03-05T07:13:48;3.10;99.90
16384;DHT22;8301;51.440;6.610;2023-03-05T07:16:16;3.10;99.90
16384;DHT22;8301;51.440;6.610;2023-03-05T07:18:44;3.10;99.90
16384;DHT22;8301;51.440;6.610;2023-03-05T07:21:14;3.10;99.90
16384;DHT22;8301;51.440;6.610;2023-03-05T07:23:42;3.10;99.90
16384;DHT22;8301;51.440;6.610;2023-03-05T07:26:20;3.20;99.90
16384;DHT22;8301;51.440;6.610;2023-03-05T07:28:47;3.20;99.90
16384;DHT22;8301;51.440;6.610;2023-03-05T07:31:16;3.20;99.90
16384;DHT22;8301;51.440;6.610;2023-03-05T07:33:44;3.20;99.90
16384;DHT22;8301;51.440;6.610;2023-03-05T07:36:11;3.20;99.90
16384;DHT22;8301;51.440;6.610;2023-03-05T07:38:38;3.20;99.90
16384;DHT22;8301;51.440;6.610;2023-03-05T07:41:09;3.30;99.90
16384;DHT22;8301;51.440;6.610;2023-03-05T07:43:37;3.20;99.90
16384;DHT22;8301;51.440;6.610;2023-03-05T07:46:07;3.30;99.90
16384;DHT22;8301;51.440;6.610;2023-03-05T07:48:34;3.30;99.90
16384;DHT22;8301;51.440;6.610;2023-03-05T07:51:05;3.40;99.90
16384;DHT22;8301;51.440;6.610;2023-03-05T07:53:39;3.40;99.90
16384;DHT22;8301;51.440;6.610;2023-03-05T07:56:06;3.50;99.90
16384;DHT22;8301;51.440;6.610;2023-03-05T07:58:33;3.50;99.90
16384;DHT22;8301;51.440;6.610;2023-03-05T08:01:00;3.50;99.90
16384;DHT22;8301;51.440;6.610;2023-03-05T08:03:27;3.50;99.90
16384;DHT22;8301;51.440;6.610;2023-03-05T08:05:54;3.50;99.90
16384;DHT22;8301;51.440;6.610;2023-03-05T08:08:20;3.60;99.90
16384;DHT22;8301;51.440;6.610;2023-03-05T08:10:47;3.60;99.90
16384;DHT22;8301;51.440;6.610;2023-03-05T08:13:14;3.60;99.90
16384;DHT22;8301;51.440;6.610;2023-03-05T08:15:41;3.60;99.90
16384;DHT22;8301;51.440;6.610;2023-03-05T08:18:08;3.70;99.90
16384;DHT22;8301;51.440;6.610;2023-03-05T08:20:34;3.60;99.90
16384;DHT22;8301;51.440;6.610;2023-03-05T08:23:02;3.70;99.90
16384;DHT22;8301;51.440;6.610;2023-03-05T08:25:29;3.70;99.90
16384;DHT22;8301;51.440;6.610;2023-03-05T08:27:56;3.80;99.90
16384;DHT22;8301;51.440;6.610;2023-03-05T08:30:23;3.60;99.90
16384;DHT22;8301;51.440;6.610;2023-03-05T08:32:52;3.60;99.90
16384;DHT22;8301;51.440;6.610;2023-03-05T08:35:19;3.70;99.90
16384;DHT22;8301;51.440;6.610;2023-03-05T08:37:46;3.80;99.90
16384;DHT22;8301;51.440;6.610;2023-03-05T08:40:13;3.90;99.90
16384;DHT22;8301;51.440;6.610;2023-03-05T08:42:41;3.90;99.90
16384;DHT22;8301;51.440;6.610;2023-03-05T08:45:08;4.00;99.90
16384;DHT22;8301;51.440;6.610;2023-03-05T08:47:35;4.00;99.90
16384;DHT22;8301;51.440;6.610;2023-03-05T08:50:02;4.00;99.90
16384;DHT22;8301;51.440;6.610;2023-03-05T08:52:29;4.00;99.90
16384;DHT22;8301;51.440;6.610;2023-03-05T08:54:56;4.00;99.90
16384;DHT22;8301;51.440;6.610;2023-03-05T08:57:23;4.00;99.90
16384;DHT22;8301;51.440;6.610;2023-03-05T08:59:50;4.00;99.90
16384;DHT22;8301;51.440;6.610;2023-03-05T09:02:17;4.00;99.90
16384;DHT22;8301;51.440;6.610;2023-03-05T09:04:44;3.90;99.90
16384;DHT22;8301;51.440;6.610;2023-03-05T09:07:11;4.00;99.90
16384;DHT22;8301;51.440;6.610;2023-03-05T09:09:38;4.00;99.90
16384;DHT22;8301;51.440;6.610;2023-03-05T09:12:05;4.00;99.90
16384;DHT22;8301;51.440;6.610;2023-03-05T09:14:32;4.10;99.90
16384;DHT22;8301;51.440;6.610;2023-03-05T09:16:58;4.10;99.90
16384;DHT22;8301;51.440;6.610;2023-03-05T09:19:25;4.10;99.90
16384;DHT22;8301;51.440;6.610;2023-03-05T09:21:52;4.10;99.90
16384;DHT22;8301;51.440;6.610;2023-03-05T09:24:20;4.20;99.90
16384;DHT22;8301;51.440;6.610;2023-03-05T09:26:47;4.20;99.90
16384;DHT22;8301;51.440;6.610;2023-03-05T09:29:14;4.10;99.90
16384;DHT22;8301;51.440;6.610;2023-03-05T09:31:41;4.20;99.90
16384;DHT22;8301;51.440;6.610;2023-03-05T09:34:09;4.20;99.90
16384;DHT22;8301;51.440;6.610;2023-03-05T09:36:36;4.20;99.90
16384;DHT22;8301;51.440;6.610;2023-03-05T09:39:03;4.30;99.90
16384;DHT22;8301;51.440;6.610;2023-03-05T09:41:33;4.40;99.90
16384;DHT22;8301;51.440;6.610;2023-03-05T09:46:51;4.70;99.90
16384;DHT22;8301;51.440;6.610;2023-03-05T09:49:29;4.80;99.90
16384;DHT22;8301;51.440;6.610;2023-03-05T09:51:53;4.90;99.90
16384;DHT22;8301;51.440;6.610;2023-03-05T09:54:21;5.00;99.90
16384;DHT22;8301;51.440;6.610;2023-03-05T09:56:49;4.90;99.90
16384;DHT22;8301;51.440;6.610;2023-03-05T09:59:18;5.00;99.90
16384;DHT22;8301;51.440;6.610;2023-03-05T10:01:44;4.90;99.90
16384;DHT22;8301;51.440;6.610;2023-03-05T10:14:43;4.60;99.90
16384;DHT22;8301;51.440;6.610;2023-03-05T10:17:17;4.70;99.90
16384;DHT22;8301;51.440;6.610;2023-03-05T10:22:24;4.90;99.90
16384;DHT22;8301;51.440;6.610;2023-03-05T10:27:50;5.00;99.90
16384;DHT22;8301;51.440;6.610;2023-03-05T10:30:46;5.00;99.90
16384;DHT22;8301;51.440;6.610;2023-03-05T10:33:07;5.00;99.90
16384;DHT22;8301;51.440;6.610;2023-03-05T10:38:08;5.00;99.90
16384;DHT22;8301;51.440;6.610;2023-03-05T10:40:37;5.10;99.90
16384;DHT22;8301;51.440;6.610;2023-03-05T10:43:10;5.00;99.90
16384;DHT22;8301;51.440;6.610;2023-03-05T10:45:35;4.90;99.90
16384;DHT22;8301;51.440;6.610;2023-03-05T10:50:44;4.80;99.90
16384;DHT22;8301;51.440;6.610;2023-03-05T10:55:38;4.70;99.90
16384;DHT22;8301;51.440;6.610;2023-03-05T10:58:11;4.80;99.90
16384;DHT22;8301;51.440;6.610;2023-03-05T11:00:38;4.80;99.90
16384;DHT22;8301;51.440;6.610;2023-03-05T11:03:07;4.90;99.90
16384;DHT22;8301;51.440;6.610;2023-03-05T11:11:14;5.40;99.90
16384;DHT22;8301;51.440;6.610;2023-03-05T11:13:24;5.70;94.20
16384;DHT22;8301;51.440;6.610;2023-03-05T11:15:58;5.80;1.00
16384;DHT22;8301;51.440;6.610;2023-03-05T11:18:25;6.00;99.90
16384;DHT22;8301;51.440;6.610;2023-03-05T11:23:41;6.30;99.90
16384;DHT22;8301;51.440;6.610;2023-03-05T11:29:00;6.50;1.00
16384;DHT22;8301;51.440;6.610;2023-03-05T11:31:19;6.50;99.90
16384;DHT22;8301;51.440;6.610;2023-03-05T11:33:52;6.40;1.00
16384;DHT22;8301;51.440;6.610;2023-03-05T11:41:37;6.10;99.90
16384;DHT22;8301;51.440;6.610;2023-03-05T11:44:12;6.00;99.90
16384;DHT22;8301;51.440;6.610;2023-03-05T11:46:41;6.00;1.00
16384;DHT22;8301;51.440;6.610;2023-03-05T11:49:09;6.20;99.90
16384;DHT22;8301;51.440;6.610;2023-03-05T11:51:40;6.10;99.90
16384;DHT22;8301;51.440;6.610;2023-03-05T11:54:10;6.20;1.00
16384;DHT22;8301;51.440;6.610;2023-03-05T11:56:37;6.20;54.10
16384;DHT22;8301;51.440;6.610;2023-03-05T11:59:15;6.10;99.90
16384;DHT22;8301;51.440;6.610;2023-03-05T12:01:45;6.20;1.00
16384;DHT22;8301;51.440;6.610;2023-03-05T12:04:13;6.10;99.90
16384;DHT22;8301;51.440;6.610;2023-03-05T12:06:48;6.10;1.00
16384;DHT22;8301;51.440;6.610;2023-03-05T12:14:38;5.80;99.90
16384;DHT22;8301;51.440;6.610;2023-03-05T12:18:11;5.80;1.00
16384;DHT22;8301;51.440;6.610;2023-03-05T12:19:50;5.80;1.00
16384;DHT22;8301;51.440;6.610;2023-03-05T12:22:21;5.60;99.90
16384;DHT22;8301;51.440;6.610;2023-03-05T12:24:48;5.50;1.00
16384;DHT22;8301;51.440;6.610;2023-03-05T12:27:30;5.20;1.00
16384;DHT22;8301;51.440;6.610;2023-03-05T12:29:47;5.30;1.00
16384;DHT22;8301;51.440;6.610;2023-03-05T12:40:12;5.10;1.00
16384;DHT22;8301;51.440;6.610;2023-03-05T12:47:39;5.40;1.00
16384;DHT22;8301;51.440;6.610;2023-03-05T12:52:41;5.40;1.00
16384;DHT22;8301;51.440;6.610;2023-03-05T12:55:29;5.30;1.00
16384;DHT22;8301;51.440;6.610;2023-03-05T12:58:10;5.30;1.00
16384;DHT22;8301;51.440;6.610;2023-03-05T13:00:44;5.40;1.00
16384;DHT22;8301;51.440;6.610;2023-03-05T13:03:14;5.40;1.00
16384;DHT22;8301;51.440;6.610;2023-03-05T13:05:46;5.30;1.00
16384;DHT22;8301;51.440;6.610;2023-03-05T13:08:14;5.40;1.00
16384;DHT22;8301;51.440;6.610;2023-03-05T13:10:39;5.50;1.00
16384;DHT22;8301;51.440;6.610;2023-03-05T13:13:10;5.60;1.00
16384;DHT22;8301;51.440;6.610;2023-03-05T13:15:52;5.50;99.90
16384;DHT22;8301;51.440;6.610;2023-03-05T13:18:24;5.60;99.90
16384;DHT22;8301;51.440;6.610;2023-03-05T13:20:47;5.60;99.90
16384;DHT22;8301;51.440;6.610;2023-03-05T13:23:26;5.50;99.90
16384;DHT22;8301;51.440;6.610;2023-03-05T13:28:25;5.60;1.00
16384;DHT22;8301;51.440;6.610;2023-03-05T13:31:03;5.70;99.90
16384;DHT22;8301;51.440;6.610;2023-03-05T13:33:31;5.60;99.90
16384;DHT22;8301;51.440;6.610;2023-03-05T13:35:58;5.70;1.00
16384;DHT22;8301;51.440;6.610;2023-03-05T13:43:50;5.80;99.90
16384;DHT22;8301;51.440;6.610;2023-03-05T13:46:36;5.90;19.90
16384;DHT22;8301;51.440;6.610;2023-03-05T13:51:49;5.80;1.00
16384;DHT22;8301;51.440;6.610;2023-03-05T13:54:13;5.60;1.00
16384;DHT22;8301;51.440;6.610;2023-03-05T13:56:56;5.70;99.90
16384;DHT22;8301;51.440;6.610;2023-03-05T13:59:28;5.80;99.90
16384;DHT22;8301;51.440;6.610;2023-03-05T14:01:54;6.00;1.00
16384;DHT22;8301;51.440;6.610;2023-03-05T14:04:23;6.00;99.90
16384;DHT22;8301;51.440;6.610;2023-03-05T14:06:55;5.90;44.30
16384;DHT22;8301;51.440;6.610;2023-03-05T14:09:22;5.90;99.90
16384;DHT22;8301;51.440;6.610;2023-03-05T14:11:51;6.00;1.00
16384;DHT22;8301;51.440;6.610;2023-03-05T14:14:18;5.90;1.00
16384;DHT22;8301;51.440;6.610;2023-03-05T14:16:46;6.10;1.00
16384;DHT22;8301;51.440;6.610;2023-03-05T14:19:33;6.20;99.90
16384;DHT22;8301;51.440;6.610;2023-03-05T14:21:56;6.20;1.00
16384;DHT22;8301;51.440;6.610;2023-03-05T14:24:25;6.30;1.00
16384;DHT22;8301;51.440;6.610;2023-03-05T14:26:56;6.10;1.00
16384;DHT22;8301;51.440;6.610;2023-03-05T14:29:26;6.10;1.00
16384;DHT22;8301;51.440;6.610;2023-03-05T14:34:40;6.20;99.90
16384;DHT22;8301;51.440;6.610;2023-03-05T14:37:03;6.20;1.00
16384;DHT22;8301;51.440;6.610;2023-03-05T14:44:42;6.30;1.00
16384;DHT22;8301;51.440;6.610;2023-03-05T14:47:09;6.30;1.00
16384;DHT22;8301;51.440;6.610;2023-03-05T14:49:36;6.40;1.00
16384;DHT22;8301;51.440;6.610;2023-03-05T14:52:03;6.20;99.90
16384;DHT22;8301;51.440;6.610;2023-03-05T14:54:31;6.20;1.00
16384;DHT22;8301;51.440;6.610;2023-03-05T14:57:00;6.00;99.90
16384;DHT22;8301;51.440;6.610;2023-03-05T14:59:34;5.80;1.00
16384;DHT22;8301;51.440;6.610;2023-03-05T15:02:01;5.70;1.00
16384;DHT22;8301;51.440;6.610;2023-03-05T15:04:27;5.90;1.00
16384;DHT22;8301;51.440;6.610;2023-03-05T15:06:54;5.90;1.00
16384;DHT22;8301;51.440;6.610;2023-03-05T15:09:21;5.80;1.00
16384;DHT22;8301;51.440;6.610;2023-03-05T15:11:48;5.70;1.00
16384;DHT22;8301;51.440;6.610;2023-03-05T15:14:14;5.60;1.00
16384;DHT22;8301;51.440;6.610;2023-03-05T15:16:42;5.60;1.00
16384;DHT22;8301;51.440;6.610;2023-03-05T15:19:10;5.60;1.00
16384;DHT22;8301;51.440;6.610;2023-03-05T15:21:38;5.60;99.90
16384;DHT22;8301;51.440;6.610;2023-03-05T15:24:05;5.40;99.90
16384;DHT22;8301;51.440;6.610;2023-03-05T15:26:31;5.50;99.90
16384;DHT22;8301;51.440;6.610;2023-03-05T15:28:58;5.50;1.00
16384;DHT22;8301;51.440;6.610;2023-03-05T15:31:25;5.60;99.90
16384;DHT22;8301;51.440;6.610;2023-03-05T15:33:53;5.70;1.00
16384;DHT22;8301;51.440;6.610;2023-03-05T15:36:20;5.80;1.00
16384;DHT22;8301;51.440;6.610;2023-03-05T15:38:49;5.70;1.00
16384;DHT22;8301;51.440;6.610;2023-03-05T15:41:16;5.80;1.00
16384;DHT22;8301;51.440;6.610;2023-03-05T15:43:43;5.80;6.10
16384;DHT22;8301;51.440;6.610;2023-03-05T15:46:09;5.70;1.00
16384;DHT22;8301;51.440;6.610;2023-03-05T15:48:36;5.70;1.00
16384;DHT22;8301;51.440;6.610;2023-03-05T15:51:06;5.70;1.00
16384;DHT22;8301;51.440;6.610;2023-03-05T15:53:33;5.70;60.10
16384;DHT22;8301;51.440;6.610;2023-03-05T15:56:00;5.80;1.00
16384;DHT22;8301;51.440;6.610;2023-03-05T15:58:27;5.70;99.90
16384;DHT22;8301;51.440;6.610;2023-03-05T16:00:53;5.80;99.90
16384;DHT22;8301;51.440;6.610;2023-03-05T16:03:20;5.80;1.00
16384;DHT22;8301;51.440;6.610;2023-03-05T16:05:48;5.70;1.00
16384;DHT22;8301;51.440;6.610;2023-03-05T16:08:15;5.70;14.60
16384;DHT22;8301;51.440;6.610;2023-03-05T16:10:42;5.60;59.10
16384;DHT22;8301;51.440;6.610;2023-03-05T16:13:10;5.70;1.00
16384;DHT22;8301;51.440;6.610;2023-03-05T16:15:37;5.70;1.00
16384;DHT22;8301;51.440;6.610;2023-03-05T16:18:11;5.70;99.90
16384;DHT22;8301;51.440;6.610;2023-03-05T16:20:47;5.70;1.00
16384;DHT22;8301;51.440;6.610;2023-03-05T16:23:14;5.70;1.00
16384;DHT22;8301;51.440;6.610;2023-03-05T16:25:41;5.70;99.90
16384;DHT22;8301;51.440;6.610;2023-03-05T16:28:07;5.70;99.90
16384;DHT22;8301;51.440;6.610;2023-03-05T16:30:35;5.70;1.00
16384;DHT22;8301;51.440;6.610;2023-03-05T16:33:02;5.70;99.90
16384;DHT22;8301;51.440;6.610;2023-03-05T16:35:30;5.70;1.00
16384;DHT22;8301;51.440;6.610;2023-03-05T16:37:57;5.70;99.90
16384;DHT22;8301;51.440;6.610;2023-03-05T16:40:30;5.60;1.00
16384;DHT22;8301;51.440;6.610;2023-03-05T16:42:57;5.60;99.90
16384;DHT22;8301;51.440;6.610;2023-03-05T16:45:24;5.50;1.00
16384;DHT22;8301;51.440;6.610;2023-03-05T16:47:50;5.50;99.90
16384;DHT22;8301;51.440;6.610;2023-03-05T16:50:17;5.50;1.00
16384;DHT22;8301;51.440;6.610;2023-03-05T16:52:44;5.40;1.00
16384;DHT22;8301;51.440;6.610;2023-03-05T16:55:11;5.40;83.00
16384;DHT22;8301;51.440;6.610;2023-03-05T16:57:38;5.40;1.00
16384;DHT22;8301;51.440;6.610;2023-03-05T17:00:06;5.40;99.90
16384;DHT22;8301;51.440;6.610;2023-03-05T17:02:35;5.30;1.00
16384;DHT22;8301;51.440;6.610;2023-03-05T17:05:02;5.30;99.90
16384;DHT22;8301;51.440;6.610;2023-03-05T17:07:29;5.30;1.00
16384;DHT22;8301;51.440;6.610;2023-03-05T17:09:56;5.30;1.00
16384;DHT22;8301;51.440;6.610;2023-03-05T17:12:23;5.30;25.00
16384;DHT22;8301;51.440;6.610;2023-03-05T17:17:20;5.30;99.90
16384;DHT22;8301;51.440;6.610;2023-03-05T17:19:47;5.20;99.90
16384;DHT22;8301;51.440;6.610;2023-03-05T17:22:14;5.20;1.00
16384;DHT22;8301;51.440;6.610;2023-03-05T17:24:41;5.20;99.90
16384;DHT22;8301;51.440;6.610;2023-03-05T17:27:08;5.20;99.90
16384;DHT22;8301;51.440;6.610;2023-03-05T17:29:35;5.10;99.90
16384;DHT22;8301;51.440;6.610;2023-03-05T17:32:02;5.10;1.00
16384;DHT22;8301;51.440;6.610;2023-03-05T17:34:29;5.00;1.00
16384;DHT22;8301;51.440;6.610;2023-03-05T17:36:55;5.00;99.90